sensor_id;sensor_type;location;lat;lon;timestamp;temperature;humidity
12370;DHT22;6249;52.128;9.986;2022-10-15T00:03:17;14.90;99.90
12370;DHT22;6249;52.128;9.986;2022-10-15T00:06:38;14.90;99.90
12370;DHT22;6249;52.128;9.986;2022-10-15T00:09:58;14.80;99.90
12370;DHT22;6249;52.128;9.986;2022-10-15T00:13:21;14.70;99.90
12370;DHT22;6249;52.128;9.986;2022-10-15T00:16:42;14.70;99.90
12370;DHT22;6249;52.128;9.986;2022-10-15T00:20:04;14.70;99.90
12370;DHT22;6249;52.128;9.986;2022-10-15T00:23:28;14.60;99.90
12370;DHT22;6249;52.128;9.986;2022-10-15T00:26:54;14.60;99.90
12370;DHT22;6249;52.128;9.986;2022-10-15T00:30:17;14.50;99.90
12370;DHT22;6249;52.128;9.986;2022-10-15T00:33:38;14.60;99.90
12370;DHT22;6249;52.128;9.986;2022-10-15T00:37:01;14.50;99.90
12370;DHT22;6249;52.128;9.986;2022-10-15T00:40:22;14.50;99.90
12370;DHT22;6249;52.128;9.986;2022-10-15T00:43:55;14.50;99.90
12370;DHT22;6249;52.128;9.986;2022-10-15T00:50:51;14.50;99.90
12370;DHT22;6249;52.128;9.986;2022-10-15T00:54:14;14.50;99.90
12370;DHT22;6249;52.128;9.986;2022-10-15T00:57:35;14.60;99.90
12370;DHT22;6249;52.128;9.986;2022-10-15T01:01:01;14.60;99.90
12370;DHT22;6249;52.128;9.986;2022-10-15T01:04:22;14.50;99.90
12370;DHT22;6249;52.128;9.986;2022-10-15T01:07:43;14.50;99.90
12370;DHT22;6249;52.128;9.986;2022-10-15T01:18:14;14.50;99.90
12370;DHT22;6249;52.128;9.986;2022-10-15T01:21:50;14.50;99.90
12370;DHT22;6249;52.128;9.986;2022-10-15T01:25:54;14.50;99.90
12370;DHT22;6249;52.128;9.986;2022-10-15T01:33:46;14.40;99.90
12370;DHT22;6249;52.128;9.986;2022-10-15T01:37:23;14.50;99.90
12370;DHT22;6249;52.128;9.986;2022-10-15T01:40:56;14.50;99.90
12370;DHT22;6249;52.128;9.986;2022-10-15T01:44:27;14.60;99.90
12370;DHT22;6249;52.128;9.986;2022-10-15T01:47:52;14.60;99.90
12370;DHT22;6249;52.128;9.986;2022-10-15T01:51:15;14.60;99.90
12370;DHT22;6249;52.128;9.986;2022-10-15T01:54:37;14.70;99.90
12370;DHT22;6249;52.128;9.986;2022-10-15T01:57:59;14.70;99.90
12370;DHT22;6249;52.128;9.986;2022-10-15T02:01:24;14.70;99.90
12370;DHT22;6249;52.128;9.986;2022-10-15T02:04:46;14.60;99.90
12370;DHT22;6249;52.128;9.986;2022-10-15T02:08:26;14.60;99.90
12370;DHT22;6249;52.128;9.986;2022-10-15T02:20:02;14.60;99.90
12370;DHT22;6249;52.128;9.986;2022-10-15T02:23:03;14.60;99.90
12370;DHT22;6249;52.128;9.986;2022-10-15T02:26:29;14.50;99.90
12370;DHT22;6249;52.128;9.986;2022-10-15T02:29:50;14.40;99.90
12370;DHT22;6249;52.128;9.986;2022-10-15T02:33:12;14.40;99.90
12370;DHT22;6249;52.128;9.986;2022-10-15T02:36:39;14.50;99.90
12370;DHT22;6249;52.128;9.986;2022-10-15T02:40:00;14.40;99.90
12370;DHT22;6249;52.128;9.986;2022-10-15T02:43:21;14.40;99.90
12370;DHT22;6249;52.128;9.986;2022-10-15T02:46:41;14.40;99.90
12370;DHT22;6249;52.128;9.986;2022-10-15T02:50:05;14.30;99.90
12370;DHT22;6249;52.128;9.986;2022-10-15T02:53:25;14.30;99.90
12370;DHT22;6249;52.128;9.986;2022-10-15T02:56:46;14.20;99.90
12370;DHT22;6249;52.128;9.986;2022-10-15T03:00:10;14.20;99.90
12370;DHT22;6249;52.128;9.986;2022-10-15T03:03:30;14.20;99.90
12370;DHT22;6249;52.128;9.986;2022-10-15T03:06:51;14.20;99.90
12370;DHT22;6249;52.128;9.986;2022-10-15T03:10:12;14.10;99.90
12370;DHT22;6249;52.128;9.986;2022-10-15T03:13:35;14.10;99.90
12370;DHT22;6249;52.128;9.986;2022-10-15T03:16:58;14.20;99.90
12370;DHT22;6249;52.128;9.986;2022-10-15T03:20:21;14.10;99.90
12370;DHT22;6249;52.128;9.986;2022-10-15T03:23:42;14.10;99.90
12370;DHT22;6249;52.128;9.986;2022-10-15T03:27:04;14.10;99.90
12370;DHT22;6249;52.128;9.986;2022-10-15T03:30:25;14.10;99.90
12370;DHT22;6249;52.128;9.986;2022-10-15T03:33:46;14.10;99.90
12370;DHT22;6249;52.128;9.986;2022-10-15T03:37:11;14.10;99.90
12370;DHT22;6249;52.128;9.986;2022-10-15T03:40:32;14.00;99.90
12370;DHT22;6249;52.128;9.986;2022-10-15T03:43:53;14.00;99.90
12370;DHT22;6249;52.128;9.986;2022-10-15T03:47:13;14.00;99.90
12370;DHT22;6249;52.128;9.986;2022-10-15T03:50:34;13.90;99.90
12370;DHT22;6249;52.128;9.986;2022-10-15T03:53:55;13.90;99.90
12370;DHT22;6249;52.128;9.986;2022-10-15T03:57:18;13.90;99.90
12370;DHT22;6249;52.128;9.986;2022-10-15T04:00:43;14.00;99.90
12370;DHT22;6249;52.128;9.986;2022-10-15T04:04:04;14.00;99.90
12370;DHT22;6249;52.128;9.986;2022-10-15T04:07:25;13.90;99.90
12370;DHT22;6249;52.128;9.986;2022-10-15T04:10:46;13.90;99.90
12370;DHT22;6249;52.128;9.986;2022-10-15T04:14:06;13.90;99.90
12370;DHT22;6249;52.128;9.986;2022-10-15T04:17:27;13.90;99.90
12370;DHT22;6249;52.128;9.986;2022-10-15T04:20:48;13.80;99.90
12370;DHT22;6249;52.128;9.986;2022-10-15T04:24:11;13.80;99.90
12370;DHT22;6249;52.128;9.986;2022-10-15T04:27:32;13.70;99.90
12370;DHT22;6249;52.128;9.986;2022-10-15T04:30:59;13.60;99.90
12370;DHT22;6249;52.128;9.986;2022-10-15T04:34:22;13.60;99.90
12370;DHT22;6249;52.128;9.986;2022-10-15T04:37:43;13.60;99.90
12370;DHT22;6249;52.128;9.986;2022-10-15T04:41:08;13.60;99.90
12370;DHT22;6249;52.128;9.986;2022-10-15T04:44:29;13.50;99.90
12370;DHT22;6249;52.128;9.986;2022-10-15T04:47:49;13.50;99.90
12370;DHT22;6249;52.128;9.986;2022-10-15T04:51:19;13.50;99.90
12370;DHT22;6249;52.128;9.986;2022-10-15T04:54:42;13.50;99.90
12370;DHT22;6249;52.128;9.986;2022-10-15T04:58:02;13.50;99.90
12370;DHT22;6249;52.128;9.986;2022-10-15T05:01:23;13.50;99.90
12370;DHT22;6249;52.128;9.986;2022-10-15T05:04:48;13.50;99.90
12370;DHT22;6249;52.128;9.986;2022-10-15T05:08:09;13.60;99.90
12370;DHT22;6249;52.128;9.986;2022-10-15T05:11:35;13.50;99.90
12370;DHT22;6249;52.128;9.986;2022-10-15T05:14:56;13.50;99.90
12370;DHT22;6249;52.128;9.986;2022-10-15T05:18:21;13.50;99.90
12370;DHT22;6249;52.128;9.986;2022-10-15T05:21:42;13.50;99.90
12370;DHT22;6249;52.128;9.986;2022-10-15T05:25:03;13.50;99.90
12370;DHT22;6249;52.128;9.986;2022-10-15T05:28:24;13.60;99.90
12370;DHT22;6249;52.128;9.986;2022-10-15T05:31:44;13.60;99.90
12370;DHT22;6249;52.128;9.986;2022-10-15T05:35:10;13.60;99.90
12370;DHT22;6249;52.128;9.986;2022-10-15T05:38:31;13.70;99.90
12370;DHT22;6249;52.128;9.986;2022-10-15T05:41:51;13.70;99.90
12370;DHT22;6249;52.128;9.986;2022-10-15T05:45:12;13.70;99.90
12370;DHT22;6249;52.128;9.986;2022-10-15T05:48:33;13.80;99.90
12370;DHT22;6249;52.128;9.986;2022-10-15T05:51:54;13.80;99.90
12370;DHT22;6249;52.128;9.986;2022-10-15T05:55:14;13.80;99.90
12370;DHT22;6249;52.128;9.986;2022-10-15T05:58:35;13.80;99.90
12370;DHT22;6249;52.128;9.986;2022-10-15T06:01:56;13.80;99.90
12370;DHT22;6249;52.128;9.986;2022-10-15T06:05:17;13.80;99.90
12370;DHT22;6249;52.128;9.986;2022-10-15T06:08:40;13.80;99.90
12370;DHT22;6249;52.128;9.986;2022-10-15T06:12:00;13.80;99.90
12370;DHT22;6249;52.128;9.986;2022-10-15T06:15:21;13.90;99.90
12370;DHT22;6249;52.128;9.986;2022-10-15T06:18:41;13.90;99.90
12370;DHT22;6249;52.128;9.986;2022-10-15T06:22:04;13.90;99.90
12370;DHT22;6249;52.128;9.986;2022-10-15T06:25:26;13.90;99.90
12370;DHT22;6249;52.128;9.986;2022-10-15T06:28:49;13.80;99.90
12370;DHT22;6249;52.128;9.986;2022-10-15T06:32:10;14.00;99.90
12370;DHT22;6249;52.128;9.986;2022-10-15T06:35:33;14.00;99.90
12370;DHT22;6249;52.128;9.986;2022-10-15T06:38:55;14.00;99.90
12370;DHT22;6249;52.128;9.986;2022-10-15T06:42:18;14.00;99.90
12370;DHT22;6249;52.128;9.986;2022-10-15T06:45:40;14.00;99.90
12370;DHT22;6249;52.128;9.986;2022-10-15T06:49:02;14.10;99.90
12370;DHT22;6249;52.128;9.986;2022-10-15T06:52:25;14.10;99.90
12370;DHT22;6249;52.128;9.986;2022-10-15T06:55:48;14.10;99.90
12370;DHT22;6249;52.128;9.986;2022-10-15T06:59:08;14.10;99.90
12370;DHT22;6249;52.128;9.986;2022-10-15T07:02:34;14.20;99.90
12370;DHT22;6249;52.128;9.986;2022-10-15T07:05:55;14.20;99.90
12370;DHT22;6249;52.128;9.986;2022-10-15T07:09:18;14.30;99.90
12370;DHT22;6249;52.128;9.986;2022-10-15T07:12:41;14.30;99.90
12370;DHT22;6249;52.128;9.986;2022-10-15T07:16:05;14.40;99.90
12370;DHT22;6249;52.128;9.986;2022-10-15T07:19:26;14.40;99.90
12370;DHT22;6249;52.128;9.986;2022-10-15T07:22:47;14.40;99.90
12370;DHT22;6249;52.128;9.986;2022-10-15T07:26:11;14.50;99.90
12370;DHT22;6249;52.128;9.986;2022-10-15T07:29:34;14.50;99.90
12370;DHT22;6249;52.128;9.986;2022-10-15T07:33:01;14.60;99.90
12370;DHT22;6249;52.128;9.986;2022-10-15T07:36:25;14.60;99.90
12370;DHT22;6249;52.128;9.986;2022-10-15T07:39:48;14.50;99.90
12370;DHT22;6249;52.128;9.986;2022-10-15T07:43:09;14.60;99.90
12370;DHT22;6249;52.128;9.986;2022-10-15T07:46:29;14.70;99.90
12370;DHT22;6249;52.128;9.986;2022-10-15T07:49:50;14.70;99.90
12370;DHT22;6249;52.128;9.986;2022-10-15T07:53:10;14.80;99.90
12370;DHT22;6249;52.128;9.986;2022-10-15T07:56:31;14.80;99.90
12370;DHT22;6249;52.128;9.986;2022-10-15T07:59:56;14.90;99.90
12370;DHT22;6249;52.128;9.986;2022-10-15T08:03:19;14.90;99.90
12370;DHT22;6249;52.128;9.986;2022-10-15T08:06:42;14.90;99.90
12370;DHT22;6249;52.128;9.986;2022-10-15T08:10:02;15.00;99.90
12370;DHT22;6249;52.128;9.986;2022-10-15T08:13:24;15.10;99.90
12370;DHT22;6249;52.128;9.986;2022-10-15T08:16:45;15.10;99.90
12370;DHT22;6249;52.128;9.986;2022-10-15T08:20:06;15.10;99.90
12370;DHT22;6249;52.128;9.986;2022-10-15T08:23:34;15.10;99.90
12370;DHT22;6249;52.128;9.986;2022-10-15T08:26:56;15.30;99.90
12370;DHT22;6249;52.128;9.986;2022-10-15T08:30:22;15.50;99.90
12370;DHT22;6249;52.128;9.986;2022-10-15T08:33:45;15.60;99.90
12370;DHT22;6249;52.128;9.986;2022-10-15T08:37:08;15.70;99.90
12370;DHT22;6249;52.128;9.986;2022-10-15T08:40:31;15.80;99.90
12370;DHT22;6249;52.128;9.986;2022-10-15T08:43:52;15.80;99.90
12370;DHT22;6249;52.128;9.986;2022-10-15T08:47:41;15.90;99.90
12370;DHT22;6249;52.128;9.986;2022-10-15T08:51:09;15.90;99.90
12370;DHT22;6249;52.128;9.986;2022-10-15T08:54:32;15.90;99.90
12370;DHT22;6249;52.128;9.986;2022-10-15T08:58:09;16.00;99.90
12370;DHT22;6249;52.128;9.986;2022-10-15T09:01:58;16.10;99.90
12370;DHT22;6249;52.128;9.986;2022-10-15T09:05:37;16.30;99.90
12370;DHT22;6249;52.128;9.986;2022-10-15T09:09:25;16.50;99.90
12370;DHT22;6249;52.128;9.986;2022-10-15T09:13:23;16.60;99.90
12370;DHT22;6249;52.128;9.986;2022-10-15T09:16:48;16.70;99.90
12370;DHT22;6249;52.128;9.986;2022-10-15T09:20:16;16.60;99.90
12370;DHT22;6249;52.128;9.986;2022-10-15T09:23:38;16.70;99.90
12370;DHT22;6249;52.128;9.986;2022-10-15T09:27:14;16.80;99.90
12370;DHT22;6249;52.128;9.986;2022-10-15T09:30:45;16.80;99.90
12370;DHT22;6249;52.128;9.986;2022-10-15T09:34:36;16.80;99.90
12370;DHT22;6249;52.128;9.986;2022-10-15T09:45:25;17.90;99.90
12370;DHT22;6249;52.128;9.986;2022-10-15T09:49:07;18.60;99.90
12370;DHT22;6249;52.128;9.986;2022-10-15T09:56:22;19.30;99.90
12370;DHT22;6249;52.128;9.986;2022-10-15T10:00:00;19.60;99.90
12370;DHT22;6249;52.128;9.986;2022-10-15T10:03:25;19.90;99.90
12370;DHT22;6249;52.128;9.986;2022-10-15T10:06:50;20.20;99.90
12370;DHT22;6249;52.128;9.986;2022-10-15T10:10:27;20.50;99.90
12370;DHT22;6249;52.128;9.986;2022-10-15T10:13:54;20.40;99.90
12370;DHT22;6249;52.128;9.986;2022-10-15T10:17:23;20.10;99.90
12370;DHT22;6249;52.128;9.986;2022-10-15T10:20:59;20.10;99.90
12370;DHT22;6249;52.128;9.986;2022-10-15T10:27:44;20.20;99.90
12370;DHT22;6249;52.128;9.986;2022-10-15T10:31:07;20.30;99.90
12370;DHT22;6249;52.128;9.986;2022-10-15T10:34:31;20.10;99.90
12370;DHT22;6249;52.128;9.986;2022-10-15T10:37:54;19.90;99.90
12370;DHT22;6249;52.128;9.986;2022-10-15T10:41:15;19.60;99.90
12370;DHT22;6249;52.128;9.986;2022-10-15T10:44:39;19.20;99.90
12370;DHT22;6249;52.128;9.986;2022-10-15T10:48:20;19.20;99.90
12370;DHT22;6249;52.128;9.986;2022-10-15T10:51:48;19.60;99.90
12370;DHT22;6249;52.128;9.986;2022-10-15T10:55:22;19.80;99.90
12370;DHT22;6249;52.128;9.986;2022-10-15T10:58:47;19.70;99.90
12370;DHT22;6249;52.128;9.986;2022-10-15T11:02:11;19.80;99.90
12370;DHT22;6249;52.128;9.986;2022-10-15T11:05:36;20.20;99.90
12370;DHT22;6249;52.128;9.986;2022-10-15T11:27:03;23.80;99.90
12370;DHT22;6249;52.128;9.986;2022-10-15T11:30:51;23.80;99.90
12370;DHT22;6249;52.128;9.986;2022-10-15T11:38:14;24.80;99.50
12370;DHT22;6249;52.128;9.986;2022-10-15T11:52:29;25.90;96.90
12370;DHT22;6249;52.128;9.986;2022-10-15T11:56:13;25.80;96.70
12370;DHT22;6249;52.128;9.986;2022-10-15T12:06:51;25.40;97.40
12370;DHT22;6249;52.128;9.986;2022-10-15T12:13:47;25.50;98.20
12370;DHT22;6249;52.128;9.986;2022-10-15T12:20:43;25.70;97.70
12370;DHT22;6249;52.128;9.986;2022-10-15T12:28:09;26.70;95.10
12370;DHT22;6249;52.128;9.986;2022-10-15T12:31:52;27.00;94.70
12370;DHT22;6249;52.128;9.986;2022-10-15T12:38:38;27.60;93.90
12370;DHT22;6249;52.128;9.986;2022-10-15T12:42:01;26.20;95.50
12370;DHT22;6249;52.128;9.986;2022-10-15T12:48:53;25.80;97.00
12370;DHT22;6249;52.128;9.986;2022-10-15T13:03:24;23.40;99.90
12370;DHT22;6249;52.128;9.986;2022-10-15T13:06:51;22.90;99.90
12370;DHT22;6249;52.128;9.986;2022-10-15T13:10:20;22.40;99.90
12370;DHT22;6249;52.128;9.986;2022-10-15T13:13:42;22.30;99.90
12370;DHT22;6249;52.128;9.986;2022-10-15T13:17:19;22.90;99.90
12370;DHT22;6249;52.128;9.986;2022-10-15T13:20:44;24.40;99.80
12370;DHT22;6249;52.128;9.986;2022-10-15T13:24:09;25.70;96.90
12370;DHT22;6249;52.128;9.986;2022-10-15T13:27:33;26.30;96.20
12370;DHT22;6249;52.128;9.986;2022-10-15T13:30:57;26.50;94.50
12370;DHT22;6249;52.128;9.986;2022-10-15T13:37:47;25.70;94.90
12370;DHT22;6249;52.128;9.986;2022-10-15T13:41:08;25.70;95.40
12370;DHT22;6249;52.128;9.986;2022-10-15T13:44:28;25.70;94.90
12370;DHT22;6249;52.128;9.986;2022-10-15T13:47:52;25.30;95.70
12370;DHT22;6249;52.128;9.986;2022-10-15T13:51:12;25.00;96.50
12370;DHT22;6249;52.128;9.986;2022-10-15T13:54:33;24.80;96.90
12370;DHT22;6249;52.128;9.986;2022-10-15T13:58:28;24.40;98.00
12370;DHT22;6249;52.128;9.986;2022-10-15T14:01:58;24.50;98.20
12370;DHT22;6249;52.128;9.986;2022-10-15T14:05:22;24.00;98.80
12370;DHT22;6249;52.128;9.986;2022-10-15T14:08:47;23.20;99.90
12370;DHT22;6249;52.128;9.986;2022-10-15T14:12:10;22.60;99.90
12370;DHT22;6249;52.128;9.986;2022-10-15T14:15:49;22.20;99.90
12370;DHT22;6249;52.128;9.986;2022-10-15T14:19:17;21.80;99.90
12370;DHT22;6249;52.128;9.986;2022-10-15T14:22:41;21.80;99.90
12370;DHT22;6249;52.128;9.986;2022-10-15T14:26:04;22.20;99.90
12370;DHT22;6249;52.128;9.986;2022-10-15T14:29:28;21.90;99.90
12370;DHT22;6249;52.128;9.986;2022-10-15T14:32:53;21.60;99.90
12370;DHT22;6249;52.128;9.986;2022-10-15T14:39:41;21.40;99.90
12370;DHT22;6249;52.128;9.986;2022-10-15T14:43:04;21.00;99.90
12370;DHT22;6249;52.128;9.986;2022-10-15T14:46:28;20.70;99.90
12370;DHT22;6249;52.128;9.986;2022-10-15T14:49:55;20.50;99.90
12370;DHT22;6249;52.128;9.986;2022-10-15T14:53:22;20.50;99.90
12370;DHT22;6249;52.128;9.986;2022-10-15T14:56:50;20.30;99.90
12370;DHT22;6249;52.128;9.986;2022-10-15T15:00:32;20.20;99.90
12370;DHT22;6249;52.128;9.986;2022-10-15T15:03:54;20.10;99.90
12370;DHT22;6249;52.128;9.986;2022-10-15T15:07:19;20.10;99.90
12370;DHT22;6249;52.128;9.986;2022-10-15T15:10:45;20.10;99.90
12370;DHT22;6249;52.128;9.986;2022-10-15T15:14:19;19.90;99.90
12370;DHT22;6249;52.128;9.986;2022-10-15T15:17:43;19.90;99.90
12370;DHT22;6249;52.128;9.986;2022-10-15T15:21:06;19.80;99.90
12370;DHT22;6249;52.128;9.986;2022-10-15T15:24:29;19.70;99.90
12370;DHT22;6249;52.128;9.986;2022-10-15T15:27:50;19.60;99.90
12370;DHT22;6249;52.128;9.986;2022-10-15T15:31:16;19.50;99.90
12370;DHT22;6249;52.128;9.986;2022-10-15T15:34:37;19.50;99.90
12370;DHT22;6249;52.128;9.986;2022-10-15T15:37:59;19.50;99.90
12370;DHT22;6249;52.128;9.986;2022-10-15T15:41:22;19.60;99.90
12370;DHT22;6249;52.128;9.986;2022-10-15T15:44:48;19.80;99.90
12370;DHT22;6249;52.128;9.986;2022-10-15T15:48:09;20.10;99.90
12370;DHT22;6249;52.128;9.986;2022-10-15T15:51:30;20.30;99.90
12370;DHT22;6249;52.128;9.986;2022-10-15T15:54:51;20.10;99.90
12370;DHT22;6249;52.128;9.986;2022-10-15T15:58:12;19.70;99.90
12370;DHT22;6249;52.128;9.986;2022-10-15T16:01:32;19.50;99.90
12370;DHT22;6249;52.128;9.986;2022-10-15T16:04:53;19.40;99.90
12370;DHT22;6249;52.128;9.986;2022-10-15T16:08:16;19.30;99.90
12370;DHT22;6249;52.128;9.986;2022-10-15T16:11:37;19.20;99.90
12370;DHT22;6249;52.128;9.986;2022-10-15T16:15:00;19.00;99.90
12370;DHT22;6249;52.128;9.986;2022-10-15T16:18:21;18.90;99.90
12370;DHT22;6249;52.128;9.986;2022-10-15T16:21:44;18.70;99.90
12370;DHT22;6249;52.128;9.986;2022-10-15T16:25:05;18.60;99.90
12370;DHT22;6249;52.128;9.986;2022-10-15T16:28:25;18.40;99.90
12370;DHT22;6249;52.128;9.986;2022-10-15T16:31:46;18.50;99.90
12370;DHT22;6249;52.128;9.986;2022-10-15T16:35:10;18.40;99.90
12370;DHT22;6249;52.128;9.986;2022-10-15T16:38:30;18.30;99.90
12370;DHT22;6249;52.128;9.986;2022-10-15T16:41:51;18.20;99.90
12370;DHT22;6249;52.128;9.986;2022-10-15T16:45:11;18.30;99.90
12370;DHT22;6249;52.128;9.986;2022-10-15T16:48:33;18.20;99.90
12370;DHT22;6249;52.128;9.986;2022-10-15T16:51:53;18.10;99.90
12370;DHT22;6249;52.128;9.986;2022-10-15T16:55:14;18.00;99.90
12370;DHT22;6249;52.128;9.986;2022-10-15T16:58:37;18.10;99.90
12370;DHT22;6249;52.128;9.986;2022-10-15T17:01:57;18.00;99.90
12370;DHT22;6249;52.128;9.986;2022-10-15T17:05:23;17.90;99.90
12370;DHT22;6249;52.128;9.986;2022-10-15T17:08:52;17.90;99.90
12370;DHT22;6249;52.128;9.986;2022-10-15T17:12:13;17.90;99.90
12370;DHT22;6249;52.128;9.986;2022-10-15T17:15:34;18.00;99.90
12370;DHT22;6249;52.128;9.986;2022-10-15T17:18:58;17.90;99.90
12370;DHT22;6249;52.128;9.986;2022-10-15T17:22:18;17.80;99.90
12370;DHT22;6249;52.128;9.986;2022-10-15T17:25:42;17.80;99.90
12370;DHT22;6249;52.128;9.986;2022-10-15T17:29:10;17.70;99.90
12370;DHT22;6249;52.128;9.986;2022-10-15T17:32:33;17.80;99.90
12370;DHT22;6249;52.128;9.986;2022-10-15T17:35:55;17.70;99.90
12370;DHT22;6249;52.128;9.986;2022-10-15T17:39:18;17.60;99.90
12370;DHT22;6249;52.128;9.986;2022-10-15T17:42:39;17.60;99.90
12370;DHT22;6249;52.128;9.986;2022-10-15T17:46:07;17.50;99.90
12370;DHT22;6249;52.128;9.986;2022-10-15T17:49:32;17.50;99.90
12370;DHT22;6249;52.128;9.986;2022-10-15T17:52:52;17.60;99.90
12370;DHT22;6249;52.128;9.986;2022-10-15T17:56:18;17.50;99.90
12370;DHT22;6249;52.128;9.986;2022-10-15T17:59:39;17.40;99.90
12370;DHT22;6249;52.128;9.986;2022-10-15T18:03:02;17.40;99.90
12370;DHT22;6249;52.128;9.986;2022-10-15T18:06:24;17.20;99.90
12370;DHT22;6249;52.128;9.986;2022-10-15T18:09:45;17.30;99.90
12370;DHT22;6249;52.128;9.986;2022-10-15T18:13:08;17.30;99.90
12370;DHT22;6249;52.128;9.986;2022-10-15T18:16:28;17.30;99.90
12370;DHT22;6249;52.128;9.986;2022-10-15T18:19:49;17.30;99.90
12370;DHT22;6249;52.128;9.986;2022-10-15T18:23:10;17.20;99.90
12370;DHT22;6249;52.128;9.986;2022-10-15T18:26:33;17.20;99.90
12370;DHT22;6249;52.128;9.986;2022-10-15T18:29:53;17.20;99.90
12370;DHT22;6249;52.128;9.986;2022-10-15T18:33:14;17.10;99.90
12370;DHT22;6249;52.128;9.986;2022-10-15T18:36:37;17.10;99.90
12370;DHT22;6249;52.128;9.986;2022-10-15T18:40:01;17.10;99.90
12370;DHT22;6249;52.128;9.986;2022-10-15T18:43:22;17.10;99.90
12370;DHT22;6249;52.128;9.986;2022-10-15T18:46:48;17.20;99.90
12370;DHT22;6249;52.128;9.986;2022-10-15T18:50:09;17.30;99.90
12370;DHT22;6249;52.128;9.986;2022-10-15T18:53:30;17.20;99.90
12370;DHT22;6249;52.128;9.986;2022-10-15T18:56:55;17.30;99.90
12370;DHT22;6249;52.128;9.986;2022-10-15T19:00:16;17.40;99.90
12370;DHT22;6249;52.128;9.986;2022-10-15T19:03:36;17.50;99.90
12370;DHT22;6249;52.128;9.986;2022-10-15T19:06:59;17.50;99.90
12370;DHT22;6249;52.128;9.986;2022-10-15T19:10:23;17.60;99.90
12370;DHT22;6249;52.128;9.986;2022-10-15T19:13:44;17.60;99.90
12370;DHT22;6249;52.128;9.986;2022-10-15T19:17:05;17.50;99.90
12370;DHT22;6249;52.128;9.986;2022-10-15T19:20:25;17.50;99.90
12370;DHT22;6249;52.128;9.986;2022-10-15T19:23:46;17.50;99.90
12370;DHT22;6249;52.128;9.986;2022-10-15T19:27:07;17.50;99.90
12370;DHT22;6249;52.128;9.986;2022-10-15T19:30:30;17.50;99.90
12370;DHT22;6249;52.128;9.986;2022-10-15T19:33:53;17.50;99.90
12370;DHT22;6249;52.128;9.986;2022-10-15T19:37:13;17.60;99.90
12370;DHT22;6249;52.128;9.986;2022-10-15T19:40:38;17.70;99.90
12370;DHT22;6249;52.128;9.986;2022-10-15T19:44:01;17.70;99.90
12370;DHT22;6249;52.128;9.986;2022-10-15T19:47:24;17.70;99.90
12370;DHT22;6249;52.128;9.986;2022-10-15T19:50:46;17.50;99.90
12370;DHT22;6249;52.128;9.986;2022-10-15T19:54:07;17.30;99.90
12370;DHT22;6249;52.128;9.986;2022-10-15T19:57:30;17.20;99.90
12370;DHT22;6249;52.128;9.986;2022-10-15T20:00:51;17.10;99.90
12370;DHT22;6249;52.128;9.986;2022-10-15T20:04:12;17.10;99.90
12370;DHT22;6249;52.128;9.986;2022-10-15T20:07:33;17.10;99.90
12370;DHT22;6249;52.128;9.986;2022-10-15T20:10:54;17.10;99.90
12370;DHT22;6249;52.128;9.986;2022-10-15T20:14:14;17.10;99.90
12370;DHT22;6249;52.128;9.986;2022-10-15T20:17:37;17.10;99.90
12370;DHT22;6249;52.128;9.986;2022-10-15T20:20:58;17.10;99.90
12370;DHT22;6249;52.128;9.986;2022-10-15T20:24:18;17.20;99.90
12370;DHT22;6249;52.128;9.986;2022-10-15T20:27:39;17.10;99.90
12370;DHT22;6249;52.128;9.986;2022-10-15T20:31:06;17.10;99.90
12370;DHT22;6249;52.128;9.986;2022-10-15T20:34:32;17.00;99.90
12370;DHT22;6249;52.128;9.986;2022-10-15T20:37:53;16.90;99.90
12370;DHT22;6249;52.128;9.986;2022-10-15T20:41:15;16.80;99.90
12370;DHT22;6249;52.128;9.986;2022-10-15T20:44:36;16.80;99.90
12370;DHT22;6249;52.128;9.986;2022-10-15T20:47:57;16.70;99.90
12370;DHT22;6249;52.128;9.986;2022-10-15T20:51:18;16.60;99.90
12370;DHT22;6249;52.128;9.986;2022-10-15T20:54:39;16.70;99.90
12370;DHT22;6249;52.128;9.986;2022-10-15T20:58:02;16.70;99.90
12370;DHT22;6249;52.128;9.986;2022-10-15T21:01:23;16.60;99.90
12370;DHT22;6249;52.128;9.986;2022-10-15T21:04:44;16.50;99.90
12370;DHT22;6249;52.128;9.986;2022-10-15T21:08:07;16.50;99.90
12370;DHT22;6249;52.128;9.986;2022-10-15T21:11:28;16.60;99.90
12370;DHT22;6249;52.128;9.986;2022-10-15T21:14:49;16.60;99.90
12370;DHT22;6249;52.128;9.986;2022-10-15T21:18:09;16.60;99.90
12370;DHT22;6249;52.128;9.986;2022-10-15T21:21:30;16.50;99.90
12370;DHT22;6249;52.128;9.986;2022-10-15T21:24:51;16.60;99.90
12370;DHT22;6249;52.128;9.986;2022-10-15T21:28:12;16.40;99.90
12370;DHT22;6249;52.128;9.986;2022-10-15T21:31:33;16.40;99.90
12370;DHT22;6249;52.128;9.986;2022-10-15T21:34:54;16.30;99.90
12370;DHT22;6249;52.128;9.986;2022-10-15T21:38:14;16.30;99.90
12370;DHT22;6249;52.128;9.986;2022-10-15T21:41:36;16.30;99.90
12370;DHT22;6249;52.128;9.986;2022-10-15T21:45:03;16.30;99.90
12370;DHT22;6249;52.128;9.986;2022-10-15T21:48:26;16.20;99.90
12370;DHT22;6249;52.128;9.986;2022-10-15T21:51:46;16.10;99.90
12370;DHT22;6249;52.128;9.986;2022-10-15T21:55:07;16.00;99.90
12370;DHT22;6249;52.128;9.986;2022-10-15T21:58:28;16.00;99.90
12370;DHT22;6249;52.128;9.986;2022-10-15T22:01:48;15.90;99.90
12370;DHT22;6249;52.128;9.986;2022-10-15T22:05:09;15.80;99.90
12370;DHT22;6249;52.128;9.986;2022-10-15T22:08:32;15.80;99.90
12370;DHT22;6249;52.128;9.986;2022-10-15T22:11:53;15.80;99.90
12370;DHT22;6249;52.128;9.986;2022-10-15T22:15:19;15.90;99.90
12370;DHT22;6249;52.128;9.986;2022-10-15T22:18:40;15.90;99.90
12370;DHT22;6249;52.128;9.986;2022-10-15T22:22:00;16.00;99.90
12370;DHT22;6249;52.128;9.986;2022-10-15T22:25:21;15.90;99.90
12370;DHT22;6249;52.128;9.986;2022-10-15T22:28:42;15.80;99.90
12370;DHT22;6249;52.128;9.986;2022-10-15T22:32:04;15.70;99.90
12370;DHT22;6249;52.128;9.986;2022-10-15T22:35:24;15.60;99.90
12370;DHT22;6249;52.128;9.986;2022-10-15T22:38:51;15.60;99.90
12370;DHT22;6249;52.128;9.986;2022-10-15T22:42:12;15.40;99.90
12370;DHT22;6249;52.128;9.986;2022-10-15T22:45:37;15.30;99.90
12370;DHT22;6249;52.128;9.986;2022-10-15T22:48:58;15.20;99.90
12370;DHT22;6249;52.128;9.986;2022-10-15T22:52:18;15.20;99.90
12370;DHT22;6249;52.128;9.986;2022-10-15T22:55:39;15.20;99.90
12370;DHT22;6249;52.128;9.986;2022-10-15T22:59:02;15.10;99.90
12370;DHT22;6249;52.128;9.986;2022-10-15T23:02:23;15.10;99.90
12370;DHT22;6249;52.128;9.986;2022-10-15T23:05:52;15.00;99.90
12370;DHT22;6249;52.128;9.986;2022-10-15T23:09:15;15.00;99.90
12370;DHT22;6249;52.128;9.986;2022-10-15T23:12:37;14.90;99.90
12370;DHT22;6249;52.128;9.986;2022-10-15T23:16:15;14.80;99.90
12370;DHT22;6249;52.128;9.986;2022-10-15T23:19:38;14.80;99.90
12370;DHT22;6249;52.128;9.986;2022-10-15T23:22:59;14.80;99.90
12370;DHT22;6249;52.128;9.986;2022-10-15T23:26:23;14.70;99.90
12370;DHT22;6249;52.128;9.986;2022-10-15T23:29:48;14.70;99.90
12370;DHT22;6249;52.128;9.986;2022-10-15T23:33:09;14.70;99.90
12370;DHT22;6249;52.128;9.986;2022-10-15T23:36:31;14.70;99.90
12370;DHT22;6249;52.128;9.986;2022-10-15T23:39:56;14.70;99.90
12370;DHT22;6249;52.128;9.986;2022-10-15T23:43:22;14.70;99.90